createdAt,value
2018-02-25T00:01:12.878Z,23.00
2018-02-25T00:03:46.825Z,19.37
2018-02-25T00:06:21.034Z,10.83
2018-02-25T00:08:55.702Z,18.83
2018-02-25T00:11:30.781Z,18.63
2018-02-25T00:14:04.582Z,13.67
2018-02-25T00:16:38.945Z,22.17
2018-02-25T00:19:12.887Z,12.37
2018-02-25T00:21:47.380Z,25.70
2018-02-25T00:24:21.663Z,15.07
2018-02-25T00:26:55.671Z,22.00
2018-02-25T00:29:30.369Z,17.80
2018-02-25T00:32:04.288Z,21.50
2018-02-25T00:34:38.116Z,23.40
2018-02-25T00:37:13.638Z,17.70
2018-02-25T00:39:47.293Z,16.00
2018-02-25T00:42:21.130Z,18.27
2018-02-25T00:44:55.194Z,17.83
2018-02-25T00:47:29.970Z,19.80
2018-02-25T00:50:03.950Z,18.70
2018-02-25T00:52:38.238Z,29.80
2018-02-25T00:55:12.274Z,25.30
2018-02-25T00:57:46.462Z,28.00
2018-02-25T01:00:21.124Z,20.10
2018-02-25T01:02:54.746Z,36.77
2018-02-25T01:05:28.862Z,33.97
2018-02-25T01:08:02.873Z,31.57
2018-02-25T01:10:36.948Z,37.70
2018-02-25T01:13:10.701Z,28.00
2018-02-25T01:15:45.421Z,23.40
2018-02-25T01:18:19.522Z,40.47
2018-02-25T01:20:53.578Z,28.90
2018-02-25T01:23:27.986Z,24.53
2018-02-25T01:26:01.681Z,20.20
2018-02-25T01:28:35.692Z,33.67
2018-02-25T01:31:10.272Z,18.73
2018-02-25T01:33:44.110Z,24.83
2018-02-25T01:36:18.925Z,23.80
2018-02-25T01:38:52.844Z,17.63
2018-02-25T01:41:27.546Z,20.47
2018-02-25T01:44:01.407Z,18.73
2018-02-25T01:46:35.221Z,30.53
2018-02-25T01:49:08.872Z,32.13
2018-02-25T01:51:42.934Z,19.53
2018-02-25T01:54:17.494Z,21.27
2018-02-25T01:56:53.145Z,18.00
2018-02-25T01:59:27.756Z,21.67
2018-02-25T02:02:01.845Z,15.67
2018-02-25T02:04:36.361Z,21.73
2018-02-25T02:07:10.887Z,23.10
2018-02-25T02:09:45.025Z,22.70
2018-02-25T02:12:18.713Z,21.87
2018-02-25T02:14:52.626Z,20.30
2018-02-25T02:17:29.596Z,21.87
2018-02-25T02:20:04.181Z,13.80
2018-02-25T02:22:38.630Z,21.60
2018-02-25T02:25:12.543Z,24.33
2018-02-25T02:27:46.619Z,32.70
2018-02-25T02:30:21.761Z,23.73
2018-02-25T02:32:56.039Z,27.57
2018-02-25T02:35:30.156Z,20.63
2018-02-25T02:38:04.012Z,36.40
2018-02-25T02:40:38.150Z,20.40
2018-02-25T02:43:12.294Z,39.77
2018-02-25T02:45:47.563Z,53.20
2018-02-25T02:48:21.611Z,76.07
2018-02-25T02:50:56.491Z,42.17
2018-02-25T02:53:31.337Z,49.40
2018-02-25T02:56:06.158Z,27.87
2018-02-25T02:58:40.400Z,35.23
2018-02-25T03:01:15.075Z,29.93
2018-02-25T03:03:49.772Z,25.10
2018-02-25T03:06:23.728Z,18.63
2018-02-25T03:08:58.411Z,31.17
2018-02-25T03:11:32.393Z,28.03
2018-02-25T03:14:06.205Z,26.53
2018-02-25T03:16:41.492Z,43.17
2018-02-25T03:19:15.622Z,24.17
2018-02-25T03:21:50.098Z,19.93
2018-02-25T03:24:23.893Z,21.57
2018-02-25T03:26:57.697Z,23.43
2018-02-25T03:29:31.554Z,23.70
2018-02-25T03:32:06.888Z,25.97
2018-02-25T03:34:41.930Z,17.13
2018-02-25T03:37:15.799Z,25.23
2018-02-25T03:39:49.623Z,25.90
2018-02-25T03:42:23.467Z,23.90
2018-02-25T03:44:58.740Z,29.90
2018-02-25T03:47:32.549Z,29.83
2018-02-25T03:50:06.202Z,23.40
2018-02-25T03:52:39.822Z,21.17
2018-02-25T03:55:13.641Z,26.10
2018-02-25T03:57:47.402Z,18.77
2018-02-25T04:00:21.323Z,28.83
2018-02-25T04:02:55.828Z,16.23
2018-02-25T04:05:30.031Z,25.23
2018-02-25T04:08:03.781Z,19.03
2018-02-25T04:10:37.890Z,15.10
2018-02-25T04:13:12.698Z,21.73
2018-02-25T04:15:46.766Z,18.93
2018-02-25T04:18:20.422Z,16.93
2018-02-25T04:20:55.353Z,15.17
2018-02-25T04:23:29.216Z,21.43
2018-02-25T04:26:03.182Z,19.40
2018-02-25T04:28:37.329Z,18.37
2018-02-25T04:31:12.012Z,19.20
2018-02-25T04:33:46.033Z,18.13
2018-02-25T04:36:19.970Z,19.87
2018-02-25T04:38:53.902Z,16.00
2018-02-25T04:41:27.782Z,17.53
2018-02-25T04:44:01.513Z,19.47
2018-02-25T04:46:35.375Z,17.33
2018-02-25T04:49:09.101Z,20.23
2018-02-25T04:51:43.778Z,16.97
2018-02-25T04:54:18.594Z,21.50
2018-02-25T04:56:52.963Z,19.40
2018-02-25T04:59:26.643Z,19.30
2018-02-25T05:02:01.252Z,20.13
2018-02-25T05:04:35.454Z,23.90
2018-02-25T05:07:09.336Z,18.50
2018-02-25T05:09:43.136Z,15.10
2018-02-25T05:12:17.805Z,18.57
2018-02-25T05:14:52.745Z,21.63
2018-02-25T05:17:27.057Z,25.10
2018-02-25T05:20:01.682Z,23.07
2018-02-25T05:22:35.529Z,20.40
2018-02-25T05:25:09.436Z,19.67
2018-02-25T05:27:44.019Z,19.73
2018-02-25T05:30:18.389Z,18.90
2018-02-25T05:32:52.598Z,23.53
2018-02-25T05:35:26.204Z,22.47
2018-02-25T05:38:00.267Z,22.30
2018-02-25T05:40:34.755Z,20.13
2018-02-25T05:43:08.950Z,19.03
2018-02-25T05:45:42.733Z,21.90
2018-02-25T05:48:17.343Z,22.47
2018-02-25T05:50:51.562Z,21.53
2018-02-25T05:53:26.293Z,23.07
2018-02-25T05:56:01.813Z,22.23
2018-02-25T05:58:37.659Z,20.73
2018-02-25T06:01:12.837Z,19.97
2018-02-25T06:03:47.944Z,23.43
2018-02-25T06:06:22.068Z,20.17
2018-02-25T06:08:56.131Z,18.40
2018-02-25T06:11:30.669Z,19.63
2018-02-25T06:14:04.550Z,19.13
2018-02-25T06:16:38.203Z,20.00
2018-02-25T06:19:12.826Z,17.20
2018-02-25T06:21:47.317Z,22.33
2018-02-25T06:24:21.972Z,22.90
2018-02-25T06:26:57.339Z,19.70
2018-02-25T06:29:31.883Z,20.93
2018-02-25T06:32:06.263Z,20.30
2018-02-25T06:34:40.256Z,18.63
2018-02-25T06:37:14.881Z,19.17
2018-02-25T06:39:49.482Z,18.93
2018-02-25T06:42:23.396Z,20.87
2018-02-25T06:44:57.324Z,22.60
2018-02-25T06:47:31.730Z,20.80
2018-02-25T06:50:05.888Z,19.57
2018-02-25T06:52:40.484Z,19.07
2018-02-25T06:55:14.745Z,21.83
2018-02-25T06:57:48.408Z,20.90
2018-02-25T07:00:22.411Z,20.57
2018-02-25T07:02:56.815Z,20.03
2018-02-25T07:05:31.573Z,19.67
2018-02-25T07:08:05.701Z,23.27
2018-02-25T07:10:40.528Z,19.57
2018-02-25T07:13:14.533Z,18.77
2018-02-25T07:15:49.267Z,19.43
2018-02-25T07:18:23.415Z,20.50
2018-02-25T07:20:58.814Z,21.27
2018-02-25T07:23:32.817Z,19.93
2018-02-25T07:26:06.712Z,22.67
2018-02-25T07:28:40.493Z,21.30
2018-02-25T07:31:14.191Z,20.50
2018-02-25T07:33:48.058Z,23.30
2018-02-25T07:36:21.964Z,24.90
2018-02-25T07:38:56.751Z,19.73
2018-02-25T07:41:31.341Z,21.93
2018-02-25T07:44:05.481Z,20.90
2018-02-25T07:46:39.451Z,18.53
2018-02-25T07:49:13.383Z,20.63
2018-02-25T07:51:47.957Z,19.93
2018-02-25T07:54:22.235Z,19.50
2018-02-25T07:56:56.138Z,24.97
2018-02-25T07:59:30.001Z,20.83
2018-02-25T08:02:03.834Z,17.27
2018-02-25T08:04:37.555Z,20.10
2018-02-25T08:07:12.120Z,18.33
2018-02-25T08:09:46.019Z,17.87
2018-02-25T08:12:19.872Z,20.37
2018-02-25T08:14:53.749Z,22.30
2018-02-25T08:17:27.928Z,14.90
2018-02-25T08:20:01.883Z,20.53
2018-02-25T08:22:35.662Z,21.23
2018-02-25T08:25:11.061Z,18.67
2018-02-25T08:27:45.459Z,17.60
2018-02-25T08:30:19.292Z,19.70
2018-02-25T08:32:53.019Z,19.20
2018-02-25T08:35:26.771Z,22.10
2018-02-25T08:38:00.545Z,16.10
2018-02-25T08:40:35.150Z,20.37
2018-02-25T08:43:09.548Z,18.80
2018-02-25T08:45:43.494Z,18.20
2018-02-25T08:48:18.002Z,16.57
2018-02-25T08:50:52.030Z,17.20
2018-02-25T08:53:25.978Z,15.37
2018-02-25T08:55:59.598Z,17.47
2018-02-25T08:58:33.263Z,16.47
2018-02-25T09:01:07.088Z,13.30
2018-02-25T09:03:40.897Z,14.27
2018-02-25T09:06:14.755Z,18.93
2018-02-25T09:08:49.382Z,15.53
2018-02-25T09:11:23.451Z,16.53
2018-02-25T09:13:58.171Z,14.73
2018-02-25T09:16:31.902Z,15.27
2018-02-25T09:19:05.971Z,14.57
2018-02-25T09:21:39.644Z,14.37
2018-02-25T09:24:14.271Z,15.97
2018-02-25T09:26:48.274Z,14.07
2018-02-25T09:29:22.796Z,14.07
2018-02-25T09:31:57.111Z,14.57
2018-02-25T09:34:31.676Z,12.10
2018-02-25T09:37:06.354Z,12.77
2018-02-25T09:39:41.282Z,13.00
2018-02-25T09:42:15.877Z,13.83
2018-02-25T09:44:49.917Z,14.03
2018-02-25T09:47:24.626Z,14.87
2018-02-25T09:49:59.921Z,12.70
2018-02-25T09:52:34.159Z,11.27
2018-02-25T09:55:08.850Z,12.97
2018-02-25T09:57:42.572Z,11.03
2018-02-25T10:00:16.468Z,10.37
2018-02-25T10:02:50.115Z,12.07
2018-02-25T10:05:24.680Z,10.90
2018-02-25T10:07:59.019Z,12.83
2018-02-25T10:10:33.548Z,10.43
2018-02-25T10:13:08.422Z,13.33
2018-02-25T10:15:42.642Z,10.70
2018-02-25T10:18:20.249Z,11.83
2018-02-25T10:20:54.432Z,10.83
2018-02-25T10:23:28.567Z,10.95
2018-02-25T10:26:03.625Z,11.50
2018-02-25T10:28:37.437Z,11.53
2018-02-25T10:31:11.318Z,13.13
2018-02-25T10:33:46.796Z,10.90
2018-02-25T10:36:21.205Z,10.47
2018-02-25T10:38:55.587Z,10.60
2018-02-25T10:41:29.654Z,10.50
2018-02-25T10:44:03.422Z,9.40
2018-02-25T10:46:38.078Z,8.33
2018-02-25T10:49:12.443Z,8.50
2018-02-25T10:51:47.314Z,9.73
2018-02-25T10:54:22.210Z,11.30
2018-02-25T10:56:56.233Z,10.70
2018-02-25T10:59:31.000Z,11.32
2018-02-25T11:02:06.211Z,11.53
2018-02-25T11:04:41.668Z,10.90
2018-02-25T11:07:15.756Z,15.17
2018-02-25T11:09:50.493Z,11.53
2018-02-25T11:12:25.090Z,11.07
2018-02-25T11:14:59.831Z,8.77
2018-02-25T11:17:34.764Z,13.13
2018-02-25T11:20:10.489Z,11.77
2018-02-25T11:22:44.985Z,10.20
2018-02-25T11:25:19.462Z,12.33
2018-02-25T11:27:53.382Z,9.60
2018-02-25T11:30:27.857Z,9.37
2018-02-25T11:33:01.890Z,9.53
2018-02-25T11:35:35.791Z,9.40
2018-02-25T11:38:09.602Z,10.60
2018-02-25T11:40:43.485Z,10.17
2018-02-25T11:43:17.239Z,8.50
2018-02-25T11:45:51.347Z,12.83
2018-02-25T11:48:26.685Z,11.43
2018-02-25T11:51:01.373Z,9.87
2018-02-25T11:53:35.618Z,8.87
2018-02-25T11:56:09.476Z,12.03
2018-02-25T11:58:44.590Z,11.27
2018-02-25T12:01:19.041Z,10.47
2018-02-25T12:03:53.549Z,11.67
2018-02-25T12:06:27.970Z,8.70
2018-02-25T12:09:02.295Z,8.27
2018-02-25T12:11:36.773Z,9.63
2018-02-25T12:14:11.125Z,11.67
2018-02-25T12:16:45.152Z,10.03
2018-02-25T12:19:19.267Z,10.20
2018-02-25T12:21:53.847Z,13.83
2018-02-25T12:24:27.905Z,10.13
2018-02-25T12:27:01.922Z,10.87
2018-02-25T12:29:36.534Z,10.40
2018-02-25T12:32:11.311Z,14.93
2018-02-25T12:34:45.375Z,10.60
2018-02-25T12:37:19.175Z,11.93
2018-02-25T12:39:53.022Z,12.20
2018-02-25T12:42:26.771Z,10.23
2018-02-25T12:45:00.658Z,10.50
2018-02-25T12:47:34.547Z,8.17
2018-02-25T12:50:08.417Z,11.50
2018-02-25T12:52:43.131Z,10.70
2018-02-25T12:55:18.018Z,9.90
2018-02-25T12:57:52.003Z,9.67
2018-02-25T13:00:26.531Z,10.47
2018-02-25T13:03:00.663Z,10.17
2018-02-25T13:05:34.582Z,9.77
2018-02-25T13:08:08.804Z,11.77
2018-02-25T13:10:43.304Z,12.13
2018-02-25T13:13:17.325Z,10.37
2018-02-25T13:15:51.403Z,13.57
2018-02-25T13:18:25.678Z,15.10
2018-02-25T13:21:00.056Z,11.17
2018-02-25T13:23:34.022Z,11.83
2018-02-25T13:26:07.775Z,12.10
2018-02-25T13:28:42.211Z,9.73
2018-02-25T13:31:16.515Z,10.90
2018-02-25T13:33:51.422Z,9.90
2018-02-25T13:36:26.792Z,17.30
2018-02-25T13:39:01.216Z,10.93
2018-02-25T13:41:35.515Z,12.63
2018-02-25T13:44:09.449Z,11.13
2018-02-25T13:46:44.149Z,11.37
2018-02-25T13:49:18.168Z,12.57
2018-02-25T13:51:52.115Z,11.90
2018-02-25T13:54:26.573Z,12.23
2018-02-25T13:57:00.741Z,9.23
2018-02-25T13:59:34.350Z,12.57
2018-02-25T14:02:08.314Z,12.53
2018-02-25T14:04:42.025Z,17.40
2018-02-25T14:07:16.682Z,9.77
2018-02-25T14:09:50.810Z,10.20
2018-02-25T14:12:24.585Z,10.60
2018-02-25T14:14:58.967Z,14.33
2018-02-25T14:17:33.821Z,8.10
2018-02-25T14:20:08.532Z,12.03
2018-02-25T14:22:43.651Z,10.80
2018-02-25T14:25:18.090Z,11.80
2018-02-25T14:27:53.025Z,13.93
2018-02-25T14:30:27.178Z,7.40
2018-02-25T14:33:01.353Z,7.37
2018-02-25T14:35:35.568Z,9.60
2018-02-25T14:38:09.835Z,9.40
2018-02-25T14:40:44.219Z,12.07
2018-02-25T14:43:18.519Z,8.90
2018-02-25T14:45:52.531Z,10.43
2018-02-25T14:48:26.284Z,9.70
2018-02-25T14:51:01.049Z,7.37
2018-02-25T14:53:35.575Z,9.33
2018-02-25T14:56:09.290Z,8.17
2018-02-25T14:58:43.346Z,6.90
2018-02-25T15:01:17.886Z,10.23
2018-02-25T15:03:52.136Z,8.50
2018-02-25T15:06:26.045Z,8.13
2018-02-25T15:08:59.832Z,6.07
2018-02-25T15:11:34.340Z,9.87
2018-02-25T15:14:08.445Z,10.10
2018-02-25T15:16:42.258Z,11.70
2018-02-25T15:19:16.042Z,10.90
2018-02-25T15:21:49.825Z,9.20
2018-02-25T15:24:23.955Z,7.30
2018-02-25T15:26:58.362Z,8.10
2018-02-25T15:29:32.300Z,12.67
2018-02-25T15:32:06.197Z,16.53
2018-02-25T15:34:41.184Z,13.27
2018-02-25T15:37:15.404Z,10.07
2018-02-25T15:39:50.232Z,8.83
2018-02-25T15:42:24.141Z,8.40
2018-02-25T15:44:58.801Z,11.23
2018-02-25T15:47:33.370Z,10.73
2018-02-25T15:50:07.397Z,9.20
2018-02-25T15:52:42.507Z,9.80
2018-02-25T15:55:17.979Z,10.10
2018-02-25T15:57:52.461Z,10.13
2018-02-25T16:00:27.123Z,10.17
2018-02-25T16:03:01.497Z,7.90
2018-02-25T16:05:36.741Z,11.93
2018-02-25T16:08:10.669Z,6.97
2018-02-25T16:10:44.466Z,10.67
2018-02-25T16:13:18.108Z,6.23
2018-02-25T16:15:52.142Z,10.53
2018-02-25T16:18:25.987Z,9.07
2018-02-25T16:20:59.771Z,8.83
2018-02-25T16:23:33.438Z,17.27
2018-02-25T16:26:08.169Z,12.70
2018-02-25T16:28:41.801Z,11.40
2018-02-25T16:31:15.609Z,13.83
2018-02-25T16:33:50.218Z,15.30
2018-02-25T16:36:24.941Z,13.93
2018-02-25T16:38:59.514Z,11.57
2018-02-25T16:41:33.427Z,7.73
2018-02-25T16:44:08.458Z,15.03
2018-02-25T16:46:42.186Z,12.40
2018-02-25T16:49:16.896Z,10.10
2018-02-25T16:51:51.946Z,10.57
2018-02-25T16:54:25.865Z,8.73
2018-02-25T16:57:00.690Z,12.37
2018-02-25T16:59:34.925Z,9.13
2018-02-25T17:02:08.645Z,12.00
2018-02-25T17:04:42.640Z,11.27
2018-02-25T17:07:16.767Z,14.53
2018-02-25T17:09:51.337Z,14.33
2018-02-25T17:12:25.461Z,9.03
2018-02-25T17:14:59.399Z,10.80
2018-02-25T17:17:33.410Z,7.47
2018-02-25T17:20:07.966Z,13.93
2018-02-25T17:22:42.071Z,13.07
2018-02-25T17:25:15.674Z,15.03
2018-02-25T17:27:49.429Z,13.47
2018-02-25T17:30:23.188Z,10.07
2018-02-25T17:32:57.064Z,11.10
2018-02-25T17:35:30.952Z,17.43
2018-02-25T17:38:04.944Z,15.27
2018-02-25T17:40:39.432Z,15.00
2018-02-25T17:43:13.578Z,9.23
2018-02-25T17:45:47.349Z,17.37
2018-02-25T17:48:21.066Z,10.70
2018-02-25T17:50:54.798Z,13.40
2018-02-25T17:53:28.794Z,12.67
2018-02-25T17:56:02.508Z,11.67
2018-02-25T17:58:36.303Z,9.67
2018-02-25T18:01:09.966Z,14.10
2018-02-25T18:03:44.226Z,12.77
2018-02-25T18:06:18.052Z,12.63
2018-02-25T18:08:52.091Z,14.00
2018-02-25T18:11:25.954Z,14.33
2018-02-25T18:14:00.583Z,11.83
2018-02-25T18:16:34.899Z,13.87
2018-02-25T18:19:10.333Z,13.27
2018-02-25T18:21:44.261Z,11.63
2018-02-25T18:24:18.843Z,15.60
2018-02-25T18:26:52.934Z,13.30
2018-02-25T18:29:26.793Z,12.20
2018-02-25T18:32:00.805Z,11.17
2018-02-25T18:34:35.424Z,16.23
2018-02-25T18:37:09.445Z,12.10
2018-02-25T18:39:43.232Z,10.77
2018-02-25T18:42:17.224Z,13.73
2018-02-25T18:44:50.962Z,14.03
2018-02-25T18:47:24.820Z,12.90
2018-02-25T18:49:58.719Z,19.17
2018-02-25T18:52:33.361Z,10.37
2018-02-25T18:55:08.021Z,16.77
2018-02-25T18:57:42.454Z,18.63
2018-02-25T19:00:16.346Z,12.77
2018-02-25T19:02:51.072Z,19.53
2018-02-25T19:05:25.325Z,13.80
2018-02-25T19:07:59.252Z,18.57
2018-02-25T19:10:33.070Z,15.23
2018-02-25T19:13:06.885Z,13.07
2018-02-25T19:15:40.781Z,15.37
2018-02-25T19:18:14.621Z,12.97
2018-02-25T19:20:48.774Z,12.10
2018-02-25T19:23:22.445Z,15.63
2018-02-25T19:25:57.015Z,17.83
2018-02-25T19:28:31.635Z,18.13
2018-02-25T19:31:06.626Z,16.57
2018-02-25T19:33:41.731Z,13.87
2018-02-25T19:36:22.647Z,12.90
2018-02-25T19:39:02.189Z,17.40
2018-02-25T19:41:42.532Z,12.43
2018-02-25T19:44:16.849Z,16.13
2018-02-25T19:46:51.667Z,18.03
2018-02-25T19:49:26.275Z,16.43
2018-02-25T19:52:00.246Z,13.53
2018-02-25T19:54:34.728Z,14.73
2018-02-25T19:57:08.876Z,16.27
2018-02-25T19:59:43.566Z,14.50
2018-02-25T20:02:17.713Z,16.77
2018-02-25T20:04:51.583Z,16.07
2018-02-25T20:07:27.162Z,24.20
2018-02-25T20:10:01.330Z,32.17
2018-02-25T20:12:35.838Z,22.30
2018-02-25T20:15:09.998Z,16.07
2018-02-25T20:17:43.846Z,19.53
2018-02-25T20:20:19.300Z,15.70
2018-02-25T20:22:53.862Z,21.37
2018-02-25T20:25:27.933Z,14.70
2018-02-25T20:28:01.610Z,17.03
2018-02-25T20:30:35.619Z,14.23
2018-02-25T20:33:09.383Z,19.00
2018-02-25T20:35:43.189Z,18.70
2018-02-25T20:38:17.086Z,13.73
2018-02-25T20:40:50.903Z,20.87
2018-02-25T20:43:25.645Z,19.93
2018-02-25T20:45:59.373Z,15.17
2018-02-25T20:48:33.390Z,28.90
2018-02-25T20:51:08.259Z,17.73
2018-02-25T20:53:44.035Z,14.53
2018-02-25T20:56:18.675Z,17.13
2018-02-25T20:58:53.175Z,18.40
2018-02-25T21:01:27.366Z,16.10
2018-02-25T21:04:01.170Z,23.00
2018-02-25T21:06:35.329Z,26.40
2018-02-25T21:09:09.442Z,13.80
2018-02-25T21:11:44.131Z,20.07
2018-02-25T21:14:17.943Z,12.17
2018-02-25T21:16:51.659Z,15.27
2018-02-25T21:19:25.510Z,19.43
2018-02-25T21:22:00.063Z,17.17
2018-02-25T21:24:34.705Z,17.23
2018-02-25T21:27:08.947Z,14.57
2018-02-25T21:29:43.473Z,15.83
2018-02-25T21:32:18.390Z,14.93
2018-02-25T21:34:52.621Z,17.07
2018-02-25T21:37:26.504Z,15.50
2018-02-25T21:40:01.158Z,16.83
2018-02-25T21:42:36.786Z,13.73
2018-02-25T21:45:11.495Z,19.77
2018-02-25T21:47:45.283Z,26.00
2018-02-25T21:50:19.117Z,20.50
2018-02-25T21:52:52.830Z,27.73
2018-02-25T21:55:26.799Z,18.17
2018-02-25T21:58:07.087Z,19.77
2018-02-25T22:00:47.189Z,25.40
2018-02-25T22:03:27.371Z,17.03
2018-02-25T22:06:01.397Z,17.93
2018-02-25T22:08:35.197Z,13.57
2018-02-25T22:11:10.701Z,14.43
2018-02-25T22:13:44.575Z,17.87
2018-02-25T22:16:18.643Z,17.17
2018-02-25T22:18:54.191Z,25.80
2018-02-25T22:21:28.242Z,17.57
2018-02-25T22:24:02.169Z,20.20
2018-02-25T22:26:36.052Z,22.83
2018-02-25T22:29:10.642Z,16.30
2018-02-25T22:31:44.349Z,13.03
2018-02-25T22:34:18.353Z,11.60
2018-02-25T22:36:53.222Z,24.20
2018-02-25T22:39:27.438Z,24.73
2018-02-25T22:42:01.495Z,20.10
2018-02-25T22:44:36.890Z,19.40
2018-02-25T22:47:10.935Z,22.27
2018-02-25T22:49:45.401Z,27.20
2018-02-25T22:52:19.195Z,23.67
2018-02-25T22:54:53.295Z,16.60
2018-02-25T22:57:28.802Z,25.77
2018-02-25T23:00:02.967Z,20.03
2018-02-25T23:02:36.731Z,19.87
2018-02-25T23:05:11.485Z,18.37
2018-02-25T23:07:45.929Z,24.53
2018-02-25T23:10:20.059Z,15.07
2018-02-25T23:12:55.311Z,20.97
2018-02-25T23:15:29.917Z,25.43
2018-02-25T23:18:03.782Z,17.03
2018-02-25T23:20:37.647Z,14.53
2018-02-25T23:23:11.780Z,24.80
2018-02-25T23:25:45.405Z,21.70
2018-02-25T23:28:19.252Z,18.80
2018-02-25T23:30:53.153Z,23.00
2018-02-25T23:33:27.018Z,28.17
2018-02-25T23:36:00.697Z,20.97
2018-02-25T23:38:34.555Z,21.30
2018-02-25T23:41:09.074Z,21.93
2018-02-25T23:43:43.110Z,30.07
2018-02-25T23:46:16.855Z,19.33
2018-02-25T23:48:51.544Z,18.87
2018-02-25T23:51:25.626Z,22.00
2018-02-25T23:53:59.721Z,22.17
2018-02-25T23:56:34.543Z,25.10
2018-02-25T23:59:08.343Z,18.97
